Vårt webkamera more information My webcam


webkamera på Randaberg more information webcam on Randaberg


Nedbørsradar  rain snow radar


Besøk vår andre værside:

Alternativ webside

Alternativ mobil

Regnskvett RandabergWebsite of another weatherstation



Ikke nødvendig med spesiell oppmerksomhet.    Det er ingen advarsler

Nære METAR rapporter

   
ENHD - Haugesund
oppdatert: 16-07-2019 18:20
Klart  
Klart  
   Vind: NNV 5.7 m/s
Vind: NNV 5.7 m/s
Temperatur: 14°C
Duggpunkt: 10°C
Fuktighet: 77%
Barometer: 1014 hPa
Sikt: More than 10 km
Skydetaljer: Klart
ENHD 161620Z 33011KT CAVOK 14/10 Q1014
ENZV - Randaberg
oppdatert: 16-07-2019 18:20
Klart  
Klart  
   Vind: VNV 4.6 m/s
Vind: VNV 4.6 m/s
Temperatur: 16°C
Duggpunkt: 11°C
Fuktighet: 72%
Barometer: 1014 hPa
Sikt: More than 10 km
Skydetaljer: Klart
ENZV 161620Z 29009KT CAVOK 16/11 Q1014 NOSIG
ENBR - Bergen
oppdatert: 16-07-2019 18:20
få skyer  
få skyer  
   Vind: NNV 4.6 m/s
Vind: NNV 4.6 m/s
Temperatur: 16°C
Duggpunkt: 10°C
Fuktighet: 68%
Barometer: 1014 hPa
Skyer: få skyer
Sikt: More than 10 km
Skydetaljer: få skyer 762 m
ENBR 161620Z 34009KT 9999 FEW025 16/10 Q1014 NOSIG RMK WIND 1200FT 30009KT
ENCN - Kristiansand
oppdatert: 16-07-2019 18:20
Klart  
Klart  
   Vind: SSV 6.2 m/s
Vind: SSV 6.2 m/s
Temperatur: 21°C
Duggpunkt: 11°C
Fuktighet: 53%
Barometer: 1012 hPa
Sikt: More than 10 km
Skydetaljer: Klart
ENCN 161620Z 21012KT CAVOK 21/11 Q1012
ENGM - Oslo
oppdatert: 16-07-2019 18:20
Klart  
Klart  
   Vind: NNV 3.6 m/s
Vind: NNV 3.6 m/s
Temperatur: 21°C
Duggpunkt: 7°C
Fuktighet: 40%
Barometer: 1012 hPa
Sikt: More than 10 km
Skydetaljer: Klart
ENGM 161620Z 34007KT 280V030 CAVOK 21/07 Q1012 NOSIG
ENVA - Trondheim
oppdatert: 16-07-2019 18:20
For det meste skyet  
For det meste skyet  
   Vind: VEST 4.1 m/s
Vind: VEST 4.1 m/s
Temperatur: 14°C
Duggpunkt: 8°C
Fuktighet: 67%
Barometer: 1016 hPa
Skyer: For det meste skyet
Sikt: More than 10 km
Skydetaljer: For det meste skyet 1493.5 m
ENVA 161620Z 28008KT 9999 BKN049 14/08 Q1016 NOSIG RMK WIND 670FT 30006KT

Script utviklet av  Saratoga-weather.org Tilrettelagt for malen av  Weerstation Leuven

Du finner vår vær info også på:

European Weather Network

WeatherCloud

Weather Underground

Citizen Weather Observer Program (CWOP)

Utstyr vi bruker:

Værstsjon
Oregon scientific WMR 300

Værprogram
Meteobridge

Oregon scientific WMR 300

Meteobridge